sensor_id;sensor_type;location;lat;lon;timestamp;temperature;humidity
12025;DHT22;6073;53.230;10.444;2023-01-24T00:01:39;2.60;99.90
12025;DHT22;6073;53.230;10.444;2023-01-24T00:04:05;2.60;99.90
12025;DHT22;6073;53.230;10.444;2023-01-24T00:06:30;2.50;99.90
12025;DHT22;6073;53.230;10.444;2023-01-24T00:08:56;2.50;99.90
12025;DHT22;6073;53.230;10.444;2023-01-24T00:11:21;2.60;99.90
12025;DHT22;6073;53.230;10.444;2023-01-24T00:13:47;2.50;99.90
12025;DHT22;6073;53.230;10.444;2023-01-24T00:16:15;2.60;99.90
12025;DHT22;6073;53.230;10.444;2023-01-24T00:18:41;2.60;99.90
12025;DHT22;6073;53.230;10.444;2023-01-24T00:21:15;2.60;99.90
12025;DHT22;6073;53.230;10.444;2023-01-24T00:23:44;2.60;99.90
12025;DHT22;6073;53.230;10.444;2023-01-24T00:26:10;2.60;99.90
12025;DHT22;6073;53.230;10.444;2023-01-24T00:28:36;2.60;99.90
12025;DHT22;6073;53.230;10.444;2023-01-24T00:31:02;2.60;99.90
12025;DHT22;6073;53.230;10.444;2023-01-24T00:33:28;2.60;99.90
12025;DHT22;6073;53.230;10.444;2023-01-24T00:35:54;2.60;99.90
12025;DHT22;6073;53.230;10.444;2023-01-24T00:38:20;2.60;99.90
12025;DHT22;6073;53.230;10.444;2023-01-24T00:40:46;2.60;99.90
12025;DHT22;6073;53.230;10.444;2023-01-24T00:43:12;2.50;99.90
12025;DHT22;6073;53.230;10.444;2023-01-24T00:45:39;2.50;99.90
12025;DHT22;6073;53.230;10.444;2023-01-24T00:48:06;2.50;99.90
12025;DHT22;6073;53.230;10.444;2023-01-24T00:50:33;2.50;99.90
12025;DHT22;6073;53.230;10.444;2023-01-24T00:52:59;2.50;99.90
12025;DHT22;6073;53.230;10.444;2023-01-24T00:55:25;2.50;99.90
12025;DHT22;6073;53.230;10.444;2023-01-24T00:57:50;2.50;99.90
12025;DHT22;6073;53.230;10.444;2023-01-24T01:00:16;2.50;99.90
12025;DHT22;6073;53.230;10.444;2023-01-24T01:02:42;2.50;99.90
12025;DHT22;6073;53.230;10.444;2023-01-24T01:05:07;2.40;99.90
12025;DHT22;6073;53.230;10.444;2023-01-24T01:07:33;2.40;99.90
12025;DHT22;6073;53.230;10.444;2023-01-24T01:09:59;2.50;99.90
12025;DHT22;6073;53.230;10.444;2023-01-24T01:12:24;2.50;99.90
12025;DHT22;6073;53.230;10.444;2023-01-24T01:14:50;2.50;99.90
12025;DHT22;6073;53.230;10.444;2023-01-24T01:17:16;2.50;99.90
12025;DHT22;6073;53.230;10.444;2023-01-24T01:19:42;2.50;99.90
12025;DHT22;6073;53.230;10.444;2023-01-24T01:22:08;2.50;99.90
12025;DHT22;6073;53.230;10.444;2023-01-24T01:24:33;2.50;99.90
12025;DHT22;6073;53.230;10.444;2023-01-24T01:26:59;2.50;99.90
12025;DHT22;6073;53.230;10.444;2023-01-24T01:29:25;2.40;99.90
12025;DHT22;6073;53.230;10.444;2023-01-24T01:31:51;2.40;99.90
12025;DHT22;6073;53.230;10.444;2023-01-24T01:34:16;2.40;99.90
12025;DHT22;6073;53.230;10.444;2023-01-24T01:36:42;2.40;99.90
12025;DHT22;6073;53.230;10.444;2023-01-24T01:39:07;2.40;99.90
12025;DHT22;6073;53.230;10.444;2023-01-24T01:41:33;2.40;99.90
12025;DHT22;6073;53.230;10.444;2023-01-24T01:44:25;2.40;99.90
12025;DHT22;6073;53.230;10.444;2023-01-24T01:50:02;2.50;99.90
12025;DHT22;6073;53.230;10.444;2023-01-24T01:52:34;2.50;99.90
12025;DHT22;6073;53.230;10.444;2023-01-24T01:55:06;2.40;99.90
12025;DHT22;6073;53.230;10.444;2023-01-24T01:57:34;2.40;99.90
12025;DHT22;6073;53.230;10.444;2023-01-24T02:00:08;2.40;99.90
12025;DHT22;6073;53.230;10.444;2023-01-24T02:02:35;2.40;99.90
12025;DHT22;6073;53.230;10.444;2023-01-24T02:05:04;2.40;99.90
12025;DHT22;6073;53.230;10.444;2023-01-24T02:07:46;2.30;99.90
12025;DHT22;6073;53.230;10.444;2023-01-24T02:10:20;2.40;99.90
12025;DHT22;6073;53.230;10.444;2023-01-24T02:12:48;2.30;99.90
12025;DHT22;6073;53.230;10.444;2023-01-24T02:15:18;2.30;99.90
12025;DHT22;6073;53.230;10.444;2023-01-24T02:18:04;2.30;99.90
12025;DHT22;6073;53.230;10.444;2023-01-24T02:20:37;2.30;99.90
12025;DHT22;6073;53.230;10.444;2023-01-24T02:28:13;2.30;99.90
12025;DHT22;6073;53.230;10.444;2023-01-24T02:30:39;2.30;99.90
12025;DHT22;6073;53.230;10.444;2023-01-24T02:33:16;2.30;99.90
12025;DHT22;6073;53.230;10.444;2023-01-24T02:35:43;2.30;99.90
12025;DHT22;6073;53.230;10.444;2023-01-24T02:38:22;2.30;99.90
12025;DHT22;6073;53.230;10.444;2023-01-24T02:40:52;2.30;99.90
12025;DHT22;6073;53.230;10.444;2023-01-24T02:43:19;2.30;99.90
12025;DHT22;6073;53.230;10.444;2023-01-24T02:45:46;2.30;99.90
12025;DHT22;6073;53.230;10.444;2023-01-24T02:48:11;2.30;99.90
12025;DHT22;6073;53.230;10.444;2023-01-24T02:50:37;2.30;99.90
12025;DHT22;6073;53.230;10.444;2023-01-24T02:53:22;2.30;99.90
12025;DHT22;6073;53.230;10.444;2023-01-24T02:56:01;2.30;99.90
12025;DHT22;6073;53.230;10.444;2023-01-24T02:58:46;2.30;99.90
12025;DHT22;6073;53.230;10.444;2023-01-24T03:01:12;2.20;99.90
12025;DHT22;6073;53.230;10.444;2023-01-24T03:03:40;2.30;99.90
12025;DHT22;6073;53.230;10.444;2023-01-24T03:06:07;2.20;99.90
12025;DHT22;6073;53.230;10.444;2023-01-24T03:08:34;2.20;99.90
12025;DHT22;6073;53.230;10.444;2023-01-24T03:10:59;2.30;99.90
12025;DHT22;6073;53.230;10.444;2023-01-24T03:13:25;2.30;99.90
12025;DHT22;6073;53.230;10.444;2023-01-24T03:16:10;2.30;99.90
12025;DHT22;6073;53.230;10.444;2023-01-24T03:18:54;2.30;99.90
12025;DHT22;6073;53.230;10.444;2023-01-24T03:21:39;2.30;99.90
12025;DHT22;6073;53.230;10.444;2023-01-24T03:24:23;2.30;99.90
12025;DHT22;6073;53.230;10.444;2023-01-24T03:27:07;2.30;99.90
12025;DHT22;6073;53.230;10.444;2023-01-24T03:29:51;2.30;99.90
12025;DHT22;6073;53.230;10.444;2023-01-24T03:32:35;2.30;99.90
12025;DHT22;6073;53.230;10.444;2023-01-24T03:35:19;2.30;99.90
12025;DHT22;6073;53.230;10.444;2023-01-24T03:37:45;2.30;99.90
12025;DHT22;6073;53.230;10.444;2023-01-24T03:40:30;2.30;99.90
12025;DHT22;6073;53.230;10.444;2023-01-24T03:42:55;2.30;99.90
12025;DHT22;6073;53.230;10.444;2023-01-24T03:45:22;2.30;99.90
12025;DHT22;6073;53.230;10.444;2023-01-24T03:47:56;2.30;99.90
12025;DHT22;6073;53.230;10.444;2023-01-24T03:50:34;2.30;99.90
12025;DHT22;6073;53.230;10.444;2023-01-24T03:53:20;2.20;99.90
12025;DHT22;6073;53.230;10.444;2023-01-24T03:55:46;2.30;99.90
12025;DHT22;6073;53.230;10.444;2023-01-24T03:58:12;2.40;99.90
12025;DHT22;6073;53.230;10.444;2023-01-24T04:00:39;2.30;99.90
12025;DHT22;6073;53.230;10.444;2023-01-24T04:03:05;2.30;99.90
12025;DHT22;6073;53.230;10.444;2023-01-24T04:05:33;2.30;99.90
12025;DHT22;6073;53.230;10.444;2023-01-24T04:07:59;2.30;99.90
12025;DHT22;6073;53.230;10.444;2023-01-24T04:10:25;2.30;99.90
12025;DHT22;6073;53.230;10.444;2023-01-24T04:12:50;2.40;99.90
12025;DHT22;6073;53.230;10.444;2023-01-24T04:15:21;2.30;99.90
12025;DHT22;6073;53.230;10.444;2023-01-24T04:17:46;2.30;99.90
12025;DHT22;6073;53.230;10.444;2023-01-24T04:20:13;2.30;99.90
12025;DHT22;6073;53.230;10.444;2023-01-24T04:22:39;2.30;99.90
12025;DHT22;6073;53.230;10.444;2023-01-24T04:25:05;2.30;99.90
12025;DHT22;6073;53.230;10.444;2023-01-24T04:27:31;2.30;99.90
12025;DHT22;6073;53.230;10.444;2023-01-24T04:29:56;2.30;99.90
12025;DHT22;6073;53.230;10.444;2023-01-24T04:32:22;2.30;99.90
12025;DHT22;6073;53.230;10.444;2023-01-24T04:34:47;2.30;99.90
12025;DHT22;6073;53.230;10.444;2023-01-24T04:37:13;2.30;99.90
12025;DHT22;6073;53.230;10.444;2023-01-24T04:39:38;2.30;99.90
12025;DHT22;6073;53.230;10.444;2023-01-24T04:42:04;2.30;99.90
12025;DHT22;6073;53.230;10.444;2023-01-24T04:44:31;2.30;99.90
12025;DHT22;6073;53.230;10.444;2023-01-24T04:46:56;2.30;99.90
12025;DHT22;6073;53.230;10.444;2023-01-24T04:49:22;2.30;99.90
12025;DHT22;6073;53.230;10.444;2023-01-24T04:51:49;2.30;99.90
12025;DHT22;6073;53.230;10.444;2023-01-24T04:54:15;2.30;99.90
12025;DHT22;6073;53.230;10.444;2023-01-24T04:56:40;2.20;99.90
12025;DHT22;6073;53.230;10.444;2023-01-24T04:59:06;2.20;99.90
12025;DHT22;6073;53.230;10.444;2023-01-24T05:01:32;2.20;99.90
12025;DHT22;6073;53.230;10.444;2023-01-24T05:03:57;2.20;99.90
12025;DHT22;6073;53.230;10.444;2023-01-24T05:06:27;2.20;99.90
12025;DHT22;6073;53.230;10.444;2023-01-24T05:08:53;2.20;99.90
12025;DHT22;6073;53.230;10.444;2023-01-24T05:11:20;2.20;99.90
12025;DHT22;6073;53.230;10.444;2023-01-24T05:13:45;2.20;99.90
12025;DHT22;6073;53.230;10.444;2023-01-24T05:16:11;2.20;99.90
12025;DHT22;6073;53.230;10.444;2023-01-24T05:18:37;2.30;99.90
12025;DHT22;6073;53.230;10.444;2023-01-24T05:21:07;2.30;99.90
12025;DHT22;6073;53.230;10.444;2023-01-24T05:23:34;2.20;99.90
12025;DHT22;6073;53.230;10.444;2023-01-24T05:26:01;2.10;99.90
12025;DHT22;6073;53.230;10.444;2023-01-24T05:28:26;2.20;99.90
12025;DHT22;6073;53.230;10.444;2023-01-24T05:30:52;2.20;99.90
12025;DHT22;6073;53.230;10.444;2023-01-24T05:33:18;2.20;99.90
12025;DHT22;6073;53.230;10.444;2023-01-24T05:35:43;2.20;99.90
12025;DHT22;6073;53.230;10.444;2023-01-24T05:38:10;2.20;99.90
12025;DHT22;6073;53.230;10.444;2023-01-24T05:40:36;2.30;99.90
12025;DHT22;6073;53.230;10.444;2023-01-24T05:43:01;2.30;99.90
12025;DHT22;6073;53.230;10.444;2023-01-24T05:45:27;2.40;99.90
12025;DHT22;6073;53.230;10.444;2023-01-24T05:47:52;2.30;99.90
12025;DHT22;6073;53.230;10.444;2023-01-24T05:50:18;2.30;99.90
12025;DHT22;6073;53.230;10.444;2023-01-24T05:52:43;2.30;99.90
12025;DHT22;6073;53.230;10.444;2023-01-24T05:55:09;2.30;99.90
12025;DHT22;6073;53.230;10.444;2023-01-24T05:57:35;2.30;99.90
12025;DHT22;6073;53.230;10.444;2023-01-24T06:00:04;2.30;99.90
12025;DHT22;6073;53.230;10.444;2023-01-24T06:02:30;2.30;99.90
12025;DHT22;6073;53.230;10.444;2023-01-24T06:04:55;2.20;99.90
12025;DHT22;6073;53.230;10.444;2023-01-24T06:07:21;2.20;99.90
12025;DHT22;6073;53.230;10.444;2023-01-24T06:09:46;2.20;99.90
12025;DHT22;6073;53.230;10.444;2023-01-24T06:12:12;2.20;99.90
12025;DHT22;6073;53.230;10.444;2023-01-24T06:14:37;2.20;99.90
12025;DHT22;6073;53.230;10.444;2023-01-24T06:17:03;2.10;99.90
12025;DHT22;6073;53.230;10.444;2023-01-24T06:19:29;2.20;99.90
12025;DHT22;6073;53.230;10.444;2023-01-24T06:24:39;2.20;99.90
12025;DHT22;6073;53.230;10.444;2023-01-24T06:27:04;2.20;99.90
12025;DHT22;6073;53.230;10.444;2023-01-24T06:29:30;2.20;99.90
12025;DHT22;6073;53.230;10.444;2023-01-24T06:32:18;2.20;99.90
12025;DHT22;6073;53.230;10.444;2023-01-24T06:35:07;2.20;99.90
12025;DHT22;6073;53.230;10.444;2023-01-24T06:37:54;2.20;99.90
12025;DHT22;6073;53.230;10.444;2023-01-24T06:40:22;2.20;99.90
12025;DHT22;6073;53.230;10.444;2023-01-24T06:42:52;2.30;99.90
12025;DHT22;6073;53.230;10.444;2023-01-24T06:45:19;2.20;99.90
12025;DHT22;6073;53.230;10.444;2023-01-24T06:47:44;2.10;99.90
12025;DHT22;6073;53.230;10.444;2023-01-24T06:50:14;2.20;99.90
12025;DHT22;6073;53.230;10.444;2023-01-24T06:52:40;2.20;99.90
12025;DHT22;6073;53.230;10.444;2023-01-24T06:55:06;2.10;99.90
12025;DHT22;6073;53.230;10.444;2023-01-24T06:57:31;2.10;99.90
12025;DHT22;6073;53.230;10.444;2023-01-24T06:59:57;2.10;99.90
12025;DHT22;6073;53.230;10.444;2023-01-24T07:02:22;2.10;99.90
12025;DHT22;6073;53.230;10.444;2023-01-24T07:04:48;2.10;99.90
12025;DHT22;6073;53.230;10.444;2023-01-24T07:07:13;2.20;99.90
12025;DHT22;6073;53.230;10.444;2023-01-24T07:09:39;2.10;99.90
12025;DHT22;6073;53.230;10.444;2023-01-24T07:12:05;2.20;99.90
12025;DHT22;6073;53.230;10.444;2023-01-24T07:14:30;2.20;99.90
12025;DHT22;6073;53.230;10.444;2023-01-24T07:16:56;2.10;99.90
12025;DHT22;6073;53.230;10.444;2023-01-24T07:19:22;2.10;99.90
12025;DHT22;6073;53.230;10.444;2023-01-24T07:21:49;2.10;99.90
12025;DHT22;6073;53.230;10.444;2023-01-24T07:24:23;2.10;99.90
12025;DHT22;6073;53.230;10.444;2023-01-24T07:26:49;2.20;99.90
12025;DHT22;6073;53.230;10.444;2023-01-24T07:29:17;2.10;99.90
12025;DHT22;6073;53.230;10.444;2023-01-24T07:31:43;2.10;99.90
12025;DHT22;6073;53.230;10.444;2023-01-24T07:34:08;2.10;99.90
12025;DHT22;6073;53.230;10.444;2023-01-24T07:36:34;2.10;99.90
12025;DHT22;6073;53.230;10.444;2023-01-24T07:38:59;2.10;99.90
12025;DHT22;6073;53.230;10.444;2023-01-24T07:41:25;2.10;99.90
12025;DHT22;6073;53.230;10.444;2023-01-24T07:43:50;2.10;99.90
12025;DHT22;6073;53.230;10.444;2023-01-24T07:46:16;2.10;99.90
12025;DHT22;6073;53.230;10.444;2023-01-24T07:48:41;2.10;99.90
12025;DHT22;6073;53.230;10.444;2023-01-24T07:51:07;2.10;99.90
12025;DHT22;6073;53.230;10.444;2023-01-24T07:53:34;2.10;99.90
12025;DHT22;6073;53.230;10.444;2023-01-24T07:56:01;2.10;99.90
12025;DHT22;6073;53.230;10.444;2023-01-24T07:58:28;2.10;99.90
12025;DHT22;6073;53.230;10.444;2023-01-24T08:00:53;2.10;99.90
12025;DHT22;6073;53.230;10.444;2023-01-24T08:03:19;2.20;99.90
12025;DHT22;6073;53.230;10.444;2023-01-24T08:05:44;2.20;99.90
12025;DHT22;6073;53.230;10.444;2023-01-24T08:08:10;2.10;99.90
12025;DHT22;6073;53.230;10.444;2023-01-24T08:10:35;2.10;99.90
12025;DHT22;6073;53.230;10.444;2023-01-24T08:13:01;2.20;99.90
12025;DHT22;6073;53.230;10.444;2023-01-24T08:15:27;2.30;99.90
12025;DHT22;6073;53.230;10.444;2023-01-24T08:17:52;2.30;99.90
12025;DHT22;6073;53.230;10.444;2023-01-24T08:20:18;2.30;99.90
12025;DHT22;6073;53.230;10.444;2023-01-24T08:22:44;2.30;99.90
12025;DHT22;6073;53.230;10.444;2023-01-24T08:25:10;2.30;99.90
12025;DHT22;6073;53.230;10.444;2023-01-24T08:27:36;2.20;99.90
12025;DHT22;6073;53.230;10.444;2023-01-24T08:30:05;2.20;99.90
12025;DHT22;6073;53.230;10.444;2023-01-24T08:32:30;2.30;99.90
12025;DHT22;6073;53.230;10.444;2023-01-24T08:34:57;2.30;99.90
12025;DHT22;6073;53.230;10.444;2023-01-24T08:37:22;2.30;99.90
12025;DHT22;6073;53.230;10.444;2023-01-24T08:39:49;2.30;99.90
12025;DHT22;6073;53.230;10.444;2023-01-24T08:42:14;2.30;99.90
12025;DHT22;6073;53.230;10.444;2023-01-24T08:44:40;2.20;99.90
12025;DHT22;6073;53.230;10.444;2023-01-24T08:47:05;2.30;99.90
12025;DHT22;6073;53.230;10.444;2023-01-24T08:49:31;2.30;99.90
12025;DHT22;6073;53.230;10.444;2023-01-24T08:51:57;2.20;99.90
12025;DHT22;6073;53.230;10.444;2023-01-24T08:54:29;2.30;99.90
12025;DHT22;6073;53.230;10.444;2023-01-24T08:56:57;2.20;99.90
12025;DHT22;6073;53.230;10.444;2023-01-24T08:59:23;2.20;99.90
12025;DHT22;6073;53.230;10.444;2023-01-24T09:01:49;2.20;99.90
12025;DHT22;6073;53.230;10.444;2023-01-24T09:04:14;2.30;99.90
12025;DHT22;6073;53.230;10.444;2023-01-24T09:06:40;2.30;99.90
12025;DHT22;6073;53.230;10.444;2023-01-24T09:09:06;2.30;99.90
12025;DHT22;6073;53.230;10.444;2023-01-24T09:11:31;2.30;99.90
12025;DHT22;6073;53.230;10.444;2023-01-24T09:13:57;2.40;99.90
12025;DHT22;6073;53.230;10.444;2023-01-24T09:16:23;2.40;99.90
12025;DHT22;6073;53.230;10.444;2023-01-24T09:18:48;2.50;99.90
12025;DHT22;6073;53.230;10.444;2023-01-24T09:21:19;2.40;99.90
12025;DHT22;6073;53.230;10.444;2023-01-24T09:23:45;2.40;99.90
12025;DHT22;6073;53.230;10.444;2023-01-24T09:26:10;2.30;99.90
12025;DHT22;6073;53.230;10.444;2023-01-24T09:28:36;2.30;99.90
12025;DHT22;6073;53.230;10.444;2023-01-24T09:31:03;2.40;99.90
12025;DHT22;6073;53.230;10.444;2023-01-24T09:33:28;2.40;99.90
12025;DHT22;6073;53.230;10.444;2023-01-24T09:35:56;2.40;99.90
12025;DHT22;6073;53.230;10.444;2023-01-24T09:38:23;2.50;99.90
12025;DHT22;6073;53.230;10.444;2023-01-24T09:40:59;2.50;99.90
12025;DHT22;6073;53.230;10.444;2023-01-24T09:43:35;2.40;99.90
12025;DHT22;6073;53.230;10.444;2023-01-24T09:46:19;2.50;99.90
12025;DHT22;6073;53.230;10.444;2023-01-24T09:48:54;2.40;99.90
12025;DHT22;6073;53.230;10.444;2023-01-24T09:51:24;2.40;99.90
12025;DHT22;6073;53.230;10.444;2023-01-24T09:53:53;2.40;99.90
12025;DHT22;6073;53.230;10.444;2023-01-24T10:01:43;2.40;99.90
12025;DHT22;6073;53.230;10.444;2023-01-24T10:04:34;2.40;99.90
12025;DHT22;6073;53.230;10.444;2023-01-24T10:07:13;2.50;99.90
12025;DHT22;6073;53.230;10.444;2023-01-24T10:10:17;2.50;99.90
12025;DHT22;6073;53.230;10.444;2023-01-24T10:13:00;2.50;99.90
12025;DHT22;6073;53.230;10.444;2023-01-24T10:15:45;2.50;99.90
12025;DHT22;6073;53.230;10.444;2023-01-24T10:23:43;2.50;99.90
12025;DHT22;6073;53.230;10.444;2023-01-24T10:26:22;2.50;99.90
12025;DHT22;6073;53.230;10.444;2023-01-24T10:28:52;2.50;99.90
12025;DHT22;6073;53.230;10.444;2023-01-24T10:31:34;2.50;99.90
12025;DHT22;6073;53.230;10.444;2023-01-24T10:34:26;2.60;99.90
12025;DHT22;6073;53.230;10.444;2023-01-24T10:36:55;2.50;99.90
12025;DHT22;6073;53.230;10.444;2023-01-24T10:39:23;2.50;99.90
12025;DHT22;6073;53.230;10.444;2023-01-24T10:41:49;2.40;99.90
12025;DHT22;6073;53.230;10.444;2023-01-24T10:44:23;2.40;99.90
12025;DHT22;6073;53.230;10.444;2023-01-24T10:50:11;2.40;99.90
12025;DHT22;6073;53.230;10.444;2023-01-24T10:52:37;2.40;99.90
12025;DHT22;6073;53.230;10.444;2023-01-24T10:55:22;2.50;99.90
12025;DHT22;6073;53.230;10.444;2023-01-24T10:57:52;2.50;99.90
12025;DHT22;6073;53.230;10.444;2023-01-24T11:00:34;2.50;99.90
12025;DHT22;6073;53.230;10.444;2023-01-24T11:03:03;2.40;99.90
12025;DHT22;6073;53.230;10.444;2023-01-24T11:05:38;2.40;99.90
12025;DHT22;6073;53.230;10.444;2023-01-24T11:08:04;2.30;99.90
12025;DHT22;6073;53.230;10.444;2023-01-24T11:10:37;2.40;99.90
12025;DHT22;6073;53.230;10.444;2023-01-24T11:15:53;2.50;99.90
12025;DHT22;6073;53.230;10.444;2023-01-24T11:18:25;2.60;99.90
12025;DHT22;6073;53.230;10.444;2023-01-24T11:21:09;2.60;99.90
12025;DHT22;6073;53.230;10.444;2023-01-24T11:23:34;2.60;99.90
12025;DHT22;6073;53.230;10.444;2023-01-24T11:26:02;2.70;99.90
12025;DHT22;6073;53.230;10.444;2023-01-24T11:28:30;2.70;99.90
12025;DHT22;6073;53.230;10.444;2023-01-24T11:31:03;2.70;99.90
12025;DHT22;6073;53.230;10.444;2023-01-24T11:33:51;2.60;99.90
12025;DHT22;6073;53.230;10.444;2023-01-24T11:36:32;2.70;99.90
12025;DHT22;6073;53.230;10.444;2023-01-24T11:47:14;2.70;99.90
12025;DHT22;6073;53.230;10.444;2023-01-24T11:50:12;2.70;99.90
12025;DHT22;6073;53.230;10.444;2023-01-24T11:52:52;2.70;99.90
12025;DHT22;6073;53.230;10.444;2023-01-24T11:58:50;2.60;99.90
12025;DHT22;6073;53.230;10.444;2023-01-24T12:07:08;2.50;99.90
12025;DHT22;6073;53.230;10.444;2023-01-24T12:12:44;2.30;99.90
12025;DHT22;6073;53.230;10.444;2023-01-24T12:15:23;2.40;99.90
12025;DHT22;6073;53.230;10.444;2023-01-24T12:23:19;2.20;99.90
12025;DHT22;6073;53.230;10.444;2023-01-24T12:25:46;2.10;99.90
12025;DHT22;6073;53.230;10.444;2023-01-24T12:28:51;2.10;99.90
12025;DHT22;6073;53.230;10.444;2023-01-24T12:31:26;2.10;99.90
12025;DHT22;6073;53.230;10.444;2023-01-24T12:34:26;2.20;99.90
12025;DHT22;6073;53.230;10.444;2023-01-24T12:37:02;2.20;99.90
12025;DHT22;6073;53.230;10.444;2023-01-24T12:39:37;2.20;99.90
12025;DHT22;6073;53.230;10.444;2023-01-24T12:42:14;2.10;99.90
12025;DHT22;6073;53.230;10.444;2023-01-24T12:44:57;2.10;99.90
12025;DHT22;6073;53.230;10.444;2023-01-24T12:47:34;2.20;99.90
12025;DHT22;6073;53.230;10.444;2023-01-24T12:50:17;2.20;99.90
12025;DHT22;6073;53.230;10.444;2023-01-24T12:55:52;2.30;99.90
12025;DHT22;6073;53.230;10.444;2023-01-24T12:58:27;2.40;99.90
12025;DHT22;6073;53.230;10.444;2023-01-24T13:12:16;2.20;99.90
12025;DHT22;6073;53.230;10.444;2023-01-24T13:20:49;2.00;99.90
12025;DHT22;6073;53.230;10.444;2023-01-24T13:32:11;2.10;99.90
12025;DHT22;6073;53.230;10.444;2023-01-24T13:34:53;2.00;99.90
12025;DHT22;6073;53.230;10.444;2023-01-24T13:37:25;2.00;99.90
12025;DHT22;6073;53.230;10.444;2023-01-24T13:40:22;2.00;99.90
12025;DHT22;6073;53.230;10.444;2023-01-24T13:42:48;2.10;99.90
12025;DHT22;6073;53.230;10.444;2023-01-24T13:47:53;2.00;99.90
12025;DHT22;6073;53.230;10.444;2023-01-24T13:50:23;1.90;99.90
12025;DHT22;6073;53.230;10.444;2023-01-24T13:52:59;1.80;99.90
12025;DHT22;6073;53.230;10.444;2023-01-24T14:00:56;1.70;99.90
12025;DHT22;6073;53.230;10.444;2023-01-24T14:03:37;1.70;99.90
12025;DHT22;6073;53.230;10.444;2023-01-24T14:21:44;1.80;99.90
12025;DHT22;6073;53.230;10.444;2023-01-24T14:26:59;1.60;99.90
12025;DHT22;6073;53.230;10.444;2023-01-24T14:29:46;1.50;99.90
12025;DHT22;6073;53.230;10.444;2023-01-24T14:32:23;1.50;99.90
12025;DHT22;6073;53.230;10.444;2023-01-24T14:37:43;1.50;99.90
12025;DHT22;6073;53.230;10.444;2023-01-24T14:42:36;1.50;99.90
12025;DHT22;6073;53.230;10.444;2023-01-24T14:45:02;1.50;99.90
12025;DHT22;6073;53.230;10.444;2023-01-24T14:47:28;1.50;99.90
12025;DHT22;6073;53.230;10.444;2023-01-24T14:49:56;1.50;99.90
12025;DHT22;6073;53.230;10.444;2023-01-24T14:52:28;1.50;99.90
12025;DHT22;6073;53.230;10.444;2023-01-24T14:54:59;1.60;99.90
12025;DHT22;6073;53.230;10.444;2023-01-24T14:57:29;1.60;99.90
12025;DHT22;6073;53.230;10.444;2023-01-24T15:00:18;1.60;99.90
12025;DHT22;6073;53.230;10.444;2023-01-24T15:02:55;1.60;99.90
12025;DHT22;6073;53.230;10.444;2023-01-24T15:07:56;1.60;99.90
12025;DHT22;6073;53.230;10.444;2023-01-24T15:12:58;1.50;99.90
12025;DHT22;6073;53.230;10.444;2023-01-24T15:15:25;1.50;99.90
12025;DHT22;6073;53.230;10.444;2023-01-24T15:18:03;1.50;99.90
12025;DHT22;6073;53.230;10.444;2023-01-24T15:20:29;1.50;99.90
12025;DHT22;6073;53.230;10.444;2023-01-24T15:22:58;1.50;99.90
12025;DHT22;6073;53.230;10.444;2023-01-24T15:25:34;1.50;99.90
12025;DHT22;6073;53.230;10.444;2023-01-24T15:28:28;1.50;99.90
12025;DHT22;6073;53.230;10.444;2023-01-24T15:31:01;1.40;99.90
12025;DHT22;6073;53.230;10.444;2023-01-24T15:33:41;1.50;99.90
12025;DHT22;6073;53.230;10.444;2023-01-24T15:36:25;1.50;99.90
12025;DHT22;6073;53.230;10.444;2023-01-24T15:38:53;1.50;99.90
12025;DHT22;6073;53.230;10.444;2023-01-24T15:41:21;1.50;99.90
12025;DHT22;6073;53.230;10.444;2023-01-24T15:43:52;1.40;99.90
12025;DHT22;6073;53.230;10.444;2023-01-24T15:46:33;1.40;99.90
12025;DHT22;6073;53.230;10.444;2023-01-24T15:52:02;1.40;99.90
12025;DHT22;6073;53.230;10.444;2023-01-24T15:54:29;1.40;99.90
12025;DHT22;6073;53.230;10.444;2023-01-24T15:56:58;1.40;99.90
12025;DHT22;6073;53.230;10.444;2023-01-24T15:59:24;1.30;99.90
12025;DHT22;6073;53.230;10.444;2023-01-24T16:01:50;1.30;99.90
12025;DHT22;6073;53.230;10.444;2023-01-24T16:04:18;1.40;99.90
12025;DHT22;6073;53.230;10.444;2023-01-24T16:06:44;1.30;99.90
12025;DHT22;6073;53.230;10.444;2023-01-24T16:09:10;1.40;99.90
12025;DHT22;6073;53.230;10.444;2023-01-24T16:11:38;1.30;99.90
12025;DHT22;6073;53.230;10.444;2023-01-24T16:14:05;1.20;99.90
12025;DHT22;6073;53.230;10.444;2023-01-24T16:16:32;1.30;99.90
12025;DHT22;6073;53.230;10.444;2023-01-24T16:18:58;1.20;99.90
12025;DHT22;6073;53.230;10.444;2023-01-24T16:21:24;1.20;99.90
12025;DHT22;6073;53.230;10.444;2023-01-24T16:23:49;1.20;99.90
12025;DHT22;6073;53.230;10.444;2023-01-24T16:26:23;1.20;99.90
12025;DHT22;6073;53.230;10.444;2023-01-24T16:28:50;1.20;99.90
12025;DHT22;6073;53.230;10.444;2023-01-24T16:31:16;1.20;99.90
12025;DHT22;6073;53.230;10.444;2023-01-24T16:33:42;1.20;99.90
12025;DHT22;6073;53.230;10.444;2023-01-24T16:36:13;1.20;99.90
12025;DHT22;6073;53.230;10.444;2023-01-24T16:38:41;1.10;99.90
12025;DHT22;6073;53.230;10.444;2023-01-24T16:41:07;1.20;99.90
12025;DHT22;6073;53.230;10.444;2023-01-24T16:43:32;1.20;99.90
12025;DHT22;6073;53.230;10.444;2023-01-24T16:45:58;1.20;99.90
12025;DHT22;6073;53.230;10.444;2023-01-24T16:48:24;1.10;99.90
12025;DHT22;6073;53.230;10.444;2023-01-24T16:50:50;1.00;99.90
12025;DHT22;6073;53.230;10.444;2023-01-24T16:53:16;1.00;99.90
12025;DHT22;6073;53.230;10.444;2023-01-24T16:55:42;1.00;99.90
12025;DHT22;6073;53.230;10.444;2023-01-24T16:58:09;1.10;99.90
12025;DHT22;6073;53.230;10.444;2023-01-24T17:00:35;1.10;99.90
12025;DHT22;6073;53.230;10.444;2023-01-24T17:03:02;1.10;99.90
12025;DHT22;6073;53.230;10.444;2023-01-24T17:05:28;1.10;99.90
12025;DHT22;6073;53.230;10.444;2023-01-24T17:07:55;1.10;99.90
12025;DHT22;6073;53.230;10.444;2023-01-24T17:10:22;1.10;99.90
12025;DHT22;6073;53.230;10.444;2023-01-24T17:12:48;1.10;99.90
12025;DHT22;6073;53.230;10.444;2023-01-24T17:15:14;1.10;99.90
12025;DHT22;6073;53.230;10.444;2023-01-24T17:17:41;1.10;99.90
12025;DHT22;6073;53.230;10.444;2023-01-24T17:20:09;1.10;99.90
12025;DHT22;6073;53.230;10.444;2023-01-24T17:22:35;1.00;99.90
12025;DHT22;6073;53.230;10.444;2023-01-24T17:25:03;1.00;99.90
12025;DHT22;6073;53.230;10.444;2023-01-24T17:27:29;0.90;99.90
12025;DHT22;6073;53.230;10.444;2023-01-24T17:29:55;0.90;99.90
12025;DHT22;6073;53.230;10.444;2023-01-24T17:32:20;0.90;99.90
12025;DHT22;6073;53.230;10.444;2023-01-24T17:34:46;1.00;99.90
12025;DHT22;6073;53.230;10.444;2023-01-24T17:37:12;1.00;99.90
12025;DHT22;6073;53.230;10.444;2023-01-24T17:39:37;1.00;99.90
12025;DHT22;6073;53.230;10.444;2023-01-24T17:42:03;1.00;99.90
12025;DHT22;6073;53.230;10.444;2023-01-24T17:44:28;0.90;99.90
12025;DHT22;6073;53.230;10.444;2023-01-24T17:46:54;0.90;99.90
12025;DHT22;6073;53.230;10.444;2023-01-24T17:49:19;0.90;99.90
12025;DHT22;6073;53.230;10.444;2023-01-24T17:51:45;0.90;99.90
12025;DHT22;6073;53.230;10.444;2023-01-24T17:54:13;1.00;99.90
12025;DHT22;6073;53.230;10.444;2023-01-24T17:56:39;1.00;99.90
12025;DHT22;6073;53.230;10.444;2023-01-24T17:59:04;1.00;99.90
12025;DHT22;6073;53.230;10.444;2023-01-24T18:01:30;1.00;99.90
12025;DHT22;6073;53.230;10.444;2023-01-24T18:03:56;1.00;99.90